Time;durP1;ratioP1;P1;durP2;ratioP2;P2;SDS_P1;SDS_P2;PMS_P1;PMS_P2;Temp;Humidity;BMP_temperature;BMP_pressure;BME280_temperature;BME280_humidity;BME280_pressure;Samples;Min_cycle;Max_cycle;Signal;HPM_P1;HPM_P2
2021/08/14 00:00:39;;;;;;;20.40;5.22;;;;;;;;;;1082405;54;21351;-87
2021/08/14 00:01:41;;;;;;;26.52;6.55;;;;;;;;;;1082062;47;20947;-88
2021/08/14 00:02:43;;;;;;;24.70;6.10;;;;;;;;;;1081989;54;20373;-88
2021/08/14 00:03:45;;;;;;;24.85;5.53;;;;;;;;;;1081707;54;20381;-87
2021/08/14 00:04:46;;;;;;;21.90;4.97;;;;;;;;;;1081544;54;20385;-86
2021/08/14 00:05:48;;;;;;;21.70;5.05;;;;;;;;;;1082059;47;20440;-85
2021/08/14 00:06:49;;;;;;;24.40;6.10;;;;;;;;;;1082258;54;20424;-86
2021/08/14 00:07:51;;;;;;;18.65;4.70;;;;;;;;;;1082119;54;20361;-85
2021/08/14 00:08:53;;;;;;;17.63;4.50;;;;;;;;;;1081883;54;20489;-86
2021/08/14 00:09:55;;;;;;;23.45;5.13;;;;;;;;;;1082934;47;20949;-86
2021/08/14 00:10:57;;;;;;;17.52;5.75;;;;;;;;;;1082083;50;20380;-86
2021/08/14 00:11:58;;;;;;;18.58;4.47;;;;;;;;;;1082253;54;20403;-86
2021/08/14 00:13:00;;;;;;;22.67;5.07;;;;;;;;;;1082064;47;20373;-87
2021/08/14 00:14:02;;;;;;;23.92;5.50;;;;;;;;;;1081339;47;20408;-86
2021/08/14 00:15:04;;;;;;;21.58;6.00;;;;;;;;;;1082197;47;20396;-86
2021/08/14 00:16:07;;;;;;;18.92;4.40;;;;;;;;;;1085711;39;20753;-86
2021/08/14 00:17:09;;;;;;;20.45;5.05;;;;;;;;;;1082092;54;20361;-86
2021/08/14 00:18:11;;;;;;;22.20;5.18;;;;;;;;;;1081710;54;20400;-86
2021/08/14 00:19:12;;;;;;;24.92;5.20;;;;;;;;;;1081762;54;20357;-88
2021/08/14 00:20:14;;;;;;;19.98;4.95;;;;;;;;;;1082094;47;20369;-86
2021/08/14 00:21:15;;;;;;;20.67;4.80;;;;;;;;;;1082125;47;20365;-86
2021/08/14 00:22:18;;;;;;;21.63;5.25;;;;;;;;;;1082138;47;20381;-86
2021/08/14 00:23:21;;;;;;;19.60;5.05;;;;;;;;;;1081795;47;20416;-85
2021/08/14 00:24:22;;;;;;;23.30;5.13;;;;;;;;;;1082339;39;20943;-86
2021/08/14 00:25:24;;;;;;;17.48;4.85;;;;;;;;;;1081525;47;20361;-86
2021/08/14 00:26:26;;;;;;;18.48;4.95;;;;;;;;;;1082237;47;20400;-86
2021/08/14 00:27:28;;;;;;;16.02;4.70;;;;;;;;;;1081677;54;20480;-86
2021/08/14 00:28:29;;;;;;;27.92;6.13;;;;;;;;;;1081567;47;20377;-87
2021/08/14 00:29:31;;;;;;;25.52;5.40;;;;;;;;;;1081896;47;20385;-87
2021/08/14 00:30:32;;;;;;;26.15;6.15;;;;;;;;;;1081971;54;20372;-87
2021/08/14 00:31:34;;;;;;;22.97;4.87;;;;;;;;;;1082009;47;20455;-85
2021/08/14 00:32:36;;;;;;;26.60;5.18;;;;;;;;;;1081435;54;20933;-86
2021/08/14 00:33:37;;;;;;;21.25;5.30;;;;;;;;;;1081383;47;20361;-86
2021/08/14 00:34:39;;;;;;;24.23;6.30;;;;;;;;;;1081894;47;20396;-86
2021/08/14 00:35:41;;;;;;;25.27;6.47;;;;;;;;;;1081718;47;20459;-87
2021/08/14 00:36:42;;;;;;;19.80;5.32;;;;;;;;;;1082320;47;20404;-86
2021/08/14 00:37:44;;;;;;;19.25;5.30;;;;;;;;;;1081599;54;20400;-87
2021/08/14 00:38:46;;;;;;;19.05;4.88;;;;;;;;;;1084384;54;20403;-87
2021/08/14 00:39:48;;;;;;;20.33;5.03;;;;;;;;;;1082829;54;20373;-88
2021/08/14 00:40:50;;;;;;;19.02;4.65;;;;;;;;;;1081747;47;21335;-87
2021/08/14 00:41:52;;;;;;;26.00;5.75;;;;;;;;;;1081838;54;20377;-87
2021/08/14 00:42:53;;;;;;;21.35;5.53;;;;;;;;;;1082184;54;20966;-87
2021/08/14 00:43:55;;;;;;;16.92;5.28;;;;;;;;;;1082583;39;20813;-86
2021/08/14 00:44:58;;;;;;;22.08;5.15;;;;;;;;;;1081816;47;20365;-86
2021/08/14 00:46:02;;;;;;;25.17;5.13;;;;;;;;;;1082442;54;21105;-86
2021/08/14 00:47:08;;;;;;;24.65;6.82;;;;;;;;;;1081873;54;20378;-86
2021/08/14 00:48:10;;;;;;;22.52;6.18;;;;;;;;;;1081520;54;20457;-87
2021/08/14 00:49:13;;;;;;;22.15;5.82;;;;;;;;;;1082168;39;20488;-87
2021/08/14 00:50:15;;;;;;;17.92;4.97;;;;;;;;;;1082429;47;20357;-86
2021/08/14 00:51:16;;;;;;;21.30;5.43;;;;;;;;;;1082190;47;20429;-87
2021/08/14 00:52:20;;;;;;;20.02;4.90;;;;;;;;;;1081509;54;21016;-86
2021/08/14 00:53:21;;;;;;;22.08;5.40;;;;;;;;;;1081406;54;20382;-87
2021/08/14 00:54:23;;;;;;;25.23;5.38;;;;;;;;;;1081493;54;20369;-86
2021/08/14 00:55:24;;;;;;;22.95;5.28;;;;;;;;;;1082786;39;20872;-86
2021/08/14 00:56:29;;;;;;;26.23;6.07;;;;;;;;;;1082084;47;20385;-87
2021/08/14 00:57:30;;;;;;;20.83;5.03;;;;;;;;;;1081921;47;20384;-86
2021/08/14 00:58:32;;;;;;;33.42;5.65;;;;;;;;;;1081598;54;20381;-87
2021/08/14 00:59:37;;;;;;;20.63;5.22;;;;;;;;;;1082660;47;20433;-87
2021/08/14 01:00:42;;;;;;;20.15;5.63;;;;;;;;;;1081997;54;20380;-88
2021/08/14 01:01:44;;;;;;;26.75;6.20;;;;;;;;;;1082539;54;20441;-88
2021/08/14 01:02:46;;;;;;;18.92;5.25;;;;;;;;;;1082613;54;20412;-87
2021/08/14 01:03:50;;;;;;;21.95;4.95;;;;;;;;;;1082306;47;20377;-86
2021/08/14 01:04:51;;;;;;;21.73;5.13;;;;;;;;;;1082233;46;20423;-87
2021/08/14 01:05:53;;;;;;;19.05;4.68;;;;;;;;;;1082839;54;20407;-86
2021/08/14 01:06:55;;;;;;;21.80;4.85;;;;;;;;;;1082621;54;20900;-85
2021/08/14 01:07:57;;;;;;;17.92;5.03;;;;;;;;;;1082624;54;20392;-86
2021/08/14 01:08:59;;;;;;;20.60;4.70;;;;;;;;;;1082677;47;20381;-87
2021/08/14 01:10:00;;;;;;;21.00;4.63;;;;;;;;;;1082672;47;21365;-87
2021/08/14 01:11:02;;;;;;;20.80;4.75;;;;;;;;;;1082748;47;20710;-87
2021/08/14 01:12:04;;;;;;;26.38;6.40;;;;;;;;;;1082931;47;21241;-87
2021/08/14 01:13:05;;;;;;;23.00;5.43;;;;;;;;;;1082245;54;20389;-86
2021/08/14 01:14:07;;;;;;;21.30;5.72;;;;;;;;;;1083582;54;20416;-87
2021/08/14 01:15:08;;;;;;;18.42;4.40;;;;;;;;;;1086878;47;20396;-88
2021/08/14 01:16:10;;;;;;;21.73;5.00;;;;;;;;;;1087418;47;20393;-89
2021/08/14 01:17:12;;;;;;;32.33;5.43;;;;;;;;;;1087308;47;20385;-88
2021/08/14 01:18:16;;;;;;;21.48;4.90;;;;;;;;;;1087191;47;20377;-88
2021/08/14 01:19:19;;;;;;;20.02;5.38;;;;;;;;;;1087715;54;20361;-85
2021/08/14 01:20:20;;;;;;;23.08;5.03;;;;;;;;;;1088148;54;20353;-86
2021/08/14 01:21:23;;;;;;;27.02;5.43;;;;;;;;;;1088224;54;20413;-87
2021/08/14 01:22:24;;;;;;;19.77;4.32;;;;;;;;;;1088103;46;20365;-85
2021/08/14 01:23:27;;;;;;;22.77;4.60;;;;;;;;;;1088245;54;20384;-88
2021/08/14 01:24:28;;;;;;;18.48;4.93;;;;;;;;;;1088020;54;20400;-88
2021/08/14 01:25:30;;;;;;;23.10;5.03;;;;;;;;;;1088108;54;20350;-86
2021/08/14 01:26:32;;;;;;;21.63;5.18;;;;;;;;;;1088168;47;20357;-85
2021/08/14 01:27:34;;;;;;;22.33;5.07;;;;;;;;;;1086976;54;20357;-86
2021/08/14 01:28:36;;;;;;;20.58;4.95;;;;;;;;;;1086858;54;20341;-85
2021/08/14 01:29:38;;;;;;;22.70;5.47;;;;;;;;;;1087702;54;20496;-87
2021/08/14 01:30:41;;;;;;;20.05;5.88;;;;;;;;;;1085005;47;20353;-86
2021/08/14 01:31:43;;;;;;;19.92;5.40;;;;;;;;;;1083951;54;20391;-86
2021/08/14 01:32:45;;;;;;;20.77;4.55;;;;;;;;;;1082983;54;20369;-87
2021/08/14 01:33:46;;;;;;;25.92;6.53;;;;;;;;;;1082658;54;20385;-86
2021/08/14 01:34:48;;;;;;;20.58;5.30;;;;;;;;;;1082530;54;20381;-86
2021/08/14 01:35:50;;;;;;;19.38;4.53;;;;;;;;;;1082545;54;20353;-86
2021/08/14 01:36:51;;;;;;;16.80;4.50;;;;;;;;;;1082208;54;20423;-86
2021/08/14 01:37:53;;;;;;;22.40;5.05;;;;;;;;;;1081755;54;20365;-86
2021/08/14 01:38:57;;;;;;;16.38;4.47;;;;;;;;;;1081714;47;20405;-87
2021/08/14 01:39:59;;;;;;;22.30;5.35;;;;;;;;;;1081762;54;20361;-86
2021/08/14 01:41:05;;;;;;;28.58;6.20;;;;;;;;;;1082122;47;20373;-86
2021/08/14 01:42:07;;;;;;;19.02;4.90;;;;;;;;;;1082200;54;20365;-86
2021/08/14 01:43:09;;;;;;;21.52;5.78;;;;;;;;;;1081573;54;20943;-86
2021/08/14 01:44:10;;;;;;;24.30;6.05;;;;;;;;;;1081868;47;20377;-87
2021/08/14 01:45:12;;;;;;;22.75;5.60;;;;;;;;;;1082137;46;20365;-87
2021/08/14 01:46:13;;;;;;;20.83;5.35;;;;;;;;;;1082502;54;20365;-86
2021/08/14 01:47:15;;;;;;;21.25;4.82;;;;;;;;;;1081625;47;20385;-86
2021/08/14 01:48:18;;;;;;;16.77;4.65;;;;;;;;;;1082378;39;21094;-86
2021/08/14 01:49:20;;;;;;;20.95;4.97;;;;;;;;;;1082145;54;20532;-87
2021/08/14 01:50:22;;;;;;;23.52;5.90;;;;;;;;;;1082136;47;20396;-87
2021/08/14 01:51:24;;;;;;;20.02;5.82;;;;;;;;;;1081927;54;20399;-88
2021/08/14 01:52:26;;;;;;;18.45;5.13;;;;;;;;;;1081583;54;20481;-87
2021/08/14 01:53:27;;;;;;;20.40;4.35;;;;;;;;;;1081993;54;21153;-86
2021/08/14 01:54:29;;;;;;;24.63;5.10;;;;;;;;;;1082018;54;20388;-86
2021/08/14 01:55:30;;;;;;;17.63;4.97;;;;;;;;;;1082346;47;20397;-86
2021/08/14 01:56:33;;;;;;;20.55;5.68;;;;;;;;;;1084668;47;20380;-86
2021/08/14 01:57:35;;;;;;;20.35;5.15;;;;;;;;;;1085729;54;20441;-86
2021/08/14 01:58:37;;;;;;;20.38;4.43;;;;;;;;;;1086162;47;20360;-87
2021/08/14 01:59:39;;;;;;;21.23;5.05;;;;;;;;;;1084903;47;20387;-87
2021/08/14 02:00:41;;;;;;;21.15;5.07;;;;;;;;;;1083755;47;20393;-86
2021/08/14 02:01:42;;;;;;;20.30;4.80;;;;;;;;;;1082787;54;20381;-87
2021/08/14 02:02:44;;;;;;;20.05;5.40;;;;;;;;;;1086131;47;20354;-87
2021/08/14 02:03:47;;;;;;;17.25;4.82;;;;;;;;;;1087374;54;20357;-88
2021/08/14 02:04:48;;;;;;;20.15;4.65;;;;;;;;;;1087592;54;20408;-88
2021/08/14 02:05:51;;;;;;;18.40;5.50;;;;;;;;;;1085852;54;20509;-86
2021/08/14 02:06:52;;;;;;;19.50;5.50;;;;;;;;;;1083191;47;20361;-86
2021/08/14 02:07:54;;;;;;;19.92;5.50;;;;;;;;;;1083637;47;20998;-86
2021/08/14 02:08:56;;;;;;;19.70;5.80;;;;;;;;;;1083568;54;20354;-86
2021/08/14 02:09:57;;;;;;;23.65;4.75;;;;;;;;;;1083304;47;20361;-85
2021/08/14 02:11:00;;;;;;;18.48;5.32;;;;;;;;;;1082780;54;20362;-84
2021/08/14 02:12:02;;;;;;;23.45;5.90;;;;;;;;;;1082331;54;20376;-87
2021/08/14 02:13:03;;;;;;;22.35;4.97;;;;;;;;;;1082227;54;20358;-86
2021/08/14 02:14:05;;;;;;;22.58;5.10;;;;;;;;;;1082048;47;20496;-87
2021/08/14 02:15:08;;;;;;;18.38;4.82;;;;;;;;;;1082037;54;20368;-87
2021/08/14 02:16:10;;;;;;;17.13;5.03;;;;;;;;;;1081964;54;20382;-88
2021/08/14 02:17:11;;;;;;;19.42;5.32;;;;;;;;;;1081945;54;20369;-87
2021/08/14 02:18:13;;;;;;;15.68;4.47;;;;;;;;;;1082955;39;20723;-87
2021/08/14 02:19:15;;;;;;;17.30;4.70;;;;;;;;;;1083001;54;20385;-86
2021/08/14 02:20:16;;;;;;;23.27;5.43;;;;;;;;;;1082573;39;21165;-87
2021/08/14 02:21:18;;;;;;;23.83;6.07;;;;;;;;;;1081975;54;20399;-85
2021/08/14 02:22:19;;;;;;;22.48;6.00;;;;;;;;;;1082412;54;20403;-85
2021/08/14 02:23:21;;;;;;;21.60;6.20;;;;;;;;;;1081975;47;20385;-86
2021/08/14 02:24:23;;;;;;;20.50;5.50;;;;;;;;;;1081839;46;20403;-87
2021/08/14 02:25:24;;;;;;;20.30;5.45;;;;;;;;;;1081687;54;20377;-86
2021/08/14 02:26:26;;;;;;;19.83;5.53;;;;;;;;;;1081556;54;20381;-86
2021/08/14 02:27:28;;;;;;;23.67;6.75;;;;;;;;;;1082365;39;20879;-86
2021/08/14 02:28:29;;;;;;;21.73;5.97;;;;;;;;;;1082062;47;20365;-87
2021/08/14 02:29:33;;;;;;;28.92;6.65;;;;;;;;;;1081677;54;20373;-87
2021/08/14 02:30:34;;;;;;;23.88;6.88;;;;;;;;;;1081620;54;20341;-86
2021/08/14 02:31:36;;;;;;;25.70;7.15;;;;;;;;;;1081442;47;20377;-87
2021/08/14 02:32:38;;;;;;;23.00;7.22;;;;;;;;;;1082111;54;20929;-87
2021/08/14 02:33:39;;;;;;;20.98;5.10;;;;;;;;;;1081586;47;20432;-87
2021/08/14 02:34:41;;;;;;;20.38;5.15;;;;;;;;;;1081697;54;20373;-89
2021/08/14 02:35:43;;;;;;;17.58;6.68;;;;;;;;;;1081148;54;20464;-87
2021/08/14 02:36:44;;;;;;;26.05;6.03;;;;;;;;;;1081414;54;20416;-88
2021/08/14 02:37:46;;;;;;;15.70;5.18;;;;;;;;;;1082236;39;21116;-88
2021/08/14 02:38:48;;;;;;;19.67;5.13;;;;;;;;;;1081460;54;20373;-87
2021/08/14 02:39:49;;;;;;;23.23;5.27;;;;;;;;;;1081678;47;20389;-87
2021/08/14 02:40:51;;;;;;;26.35;5.93;;;;;;;;;;1081785;39;20471;-87
2021/08/14 02:41:52;;;;;;;24.52;6.10;;;;;;;;;;1082120;47;20370;-86
2021/08/14 02:42:54;;;;;;;26.17;5.95;;;;;;;;;;1081943;47;20469;-86
2021/08/14 02:43:55;;;;;;;25.67;6.68;;;;;;;;;;1081770;47;20420;-87
2021/08/14 02:44:57;;;;;;;18.88;5.90;;;;;;;;;;1081644;54;20377;-87
2021/08/14 02:46:02;;;;;;;21.42;5.55;;;;;;;;;;1081541;47;20377;-88
2021/08/14 02:47:03;;;;;;;22.52;5.80;;;;;;;;;;1082096;47;20369;-87
2021/08/14 02:48:05;;;;;;;24.17;5.70;;;;;;;;;;1081920;46;20451;-87
2021/08/14 02:49:07;;;;;;;30.50;6.82;;;;;;;;;;1081892;54;20943;-87
2021/08/14 02:50:09;;;;;;;23.70;5.28;;;;;;;;;;1081422;54;20366;-87
2021/08/14 02:51:10;;;;;;;24.60;5.93;;;;;;;;;;1081349;47;21008;-87
2021/08/14 02:52:12;;;;;;;21.85;5.28;;;;;;;;;;1081909;54;20377;-87
2021/08/14 02:53:13;;;;;;;23.58;5.75;;;;;;;;;;1081772;47;20377;-88
2021/08/14 02:54:15;;;;;;;21.15;6.25;;;;;;;;;;1081221;47;20956;-86
2021/08/14 02:55:16;;;;;;;23.00;5.38;;;;;;;;;;1081335;54;21271;-87
2021/08/14 02:56:18;;;;;;;20.50;5.38;;;;;;;;;;1081705;47;20929;-87
2021/08/14 02:57:20;;;;;;;22.42;6.10;;;;;;;;;;1081679;54;20377;-86
2021/08/14 02:58:21;;;;;;;19.73;5.85;;;;;;;;;;1081941;54;20377;-86
2021/08/14 02:59:24;;;;;;;23.30;5.32;;;;;;;;;;1082158;47;20933;-86
2021/08/14 03:00:26;;;;;;;19.13;5.65;;;;;;;;;;1082947;54;20411;-87
2021/08/14 03:01:28;;;;;;;23.73;5.85;;;;;;;;;;1082078;54;20399;-87
2021/08/14 03:02:30;;;;;;;26.48;7.18;;;;;;;;;;1082237;47;20376;-86
2021/08/14 03:03:32;;;;;;;24.20;5.30;;;;;;;;;;1081825;54;20369;-86
2021/08/14 03:04:33;;;;;;;25.42;5.50;;;;;;;;;;1081890;39;21124;-87
2021/08/14 03:05:35;;;;;;;25.48;6.40;;;;;;;;;;1081489;51;20396;-87
2021/08/14 03:06:36;;;;;;;20.20;4.88;;;;;;;;;;1081781;46;20377;-87
2021/08/14 03:07:38;;;;;;;23.30;6.32;;;;;;;;;;1081488;47;20954;-87
2021/08/14 03:08:40;;;;;;;19.50;5.53;;;;;;;;;;1082087;54;20369;-86
2021/08/14 03:09:41;;;;;;;25.20;6.30;;;;;;;;;;1081683;39;20750;-86
2021/08/14 03:10:43;;;;;;;26.52;5.50;;;;;;;;;;1081770;47;20392;-88
2021/08/14 03:11:44;;;;;;;23.83;5.40;;;;;;;;;;1081716;47;20512;-88
2021/08/14 03:12:46;;;;;;;27.55;6.43;;;;;;;;;;1081652;54;20405;-87
2021/08/14 03:13:48;;;;;;;20.85;6.13;;;;;;;;;;1082307;47;20362;-88
2021/08/14 03:14:49;;;;;;;26.55;5.82;;;;;;;;;;1082040;54;20952;-86
2021/08/14 03:15:51;;;;;;;21.38;5.43;;;;;;;;;;1082273;39;21099;-87
2021/08/14 03:16:56;;;;;;;23.60;5.38;;;;;;;;;;1081884;54;20374;-86
2021/08/14 03:17:57;;;;;;;21.58;5.38;;;;;;;;;;1082252;39;20805;-86
2021/08/14 03:18:59;;;;;;;22.85;5.70;;;;;;;;;;1081504;54;20377;-87
2021/08/14 03:20:01;;;;;;;24.75;5.32;;;;;;;;;;1081501;54;20357;-87
2021/08/14 03:21:02;;;;;;;28.58;6.13;;;;;;;;;;1081445;47;20381;-87
2021/08/14 03:22:05;;;;;;;25.35;6.28;;;;;;;;;;1081668;47;20372;-87
2021/08/14 03:23:07;;;;;;;23.30;5.18;;;;;;;;;;1081478;47;20373;-88
2021/08/14 03:24:09;;;;;;;24.45;6.65;;;;;;;;;;1081321;54;20365;-87
2021/08/14 03:25:10;;;;;;;20.50;5.78;;;;;;;;;;1081958;39;20789;-87
2021/08/14 03:26:12;;;;;;;19.17;5.28;;;;;;;;;;1082032;47;20380;-87
2021/08/14 03:27:13;;;;;;;22.88;6.07;;;;;;;;;;1082066;54;20370;-88
2021/08/14 03:28:15;;;;;;;22.73;6.03;;;;;;;;;;1081759;47;20353;-86
2021/08/14 03:29:17;;;;;;;21.85;5.20;;;;;;;;;;1081598;54;20381;-87
2021/08/14 03:30:18;;;;;;;31.10;7.00;;;;;;;;;;1082171;47;20486;-87
2021/08/14 03:31:21;;;;;;;29.70;6.65;;;;;;;;;;1082237;39;20812;-88
2021/08/14 03:32:23;;;;;;;27.83;6.20;;;;;;;;;;1082059;54;20396;-87
2021/08/14 03:33:26;;;;;;;21.08;5.28;;;;;;;;;;1081435;54;20389;-85
2021/08/14 03:34:28;;;;;;;24.10;5.57;;;;;;;;;;1081730;51;20402;-88
2021/08/14 03:35:30;;;;;;;17.15;5.45;;;;;;;;;;1081628;46;20358;-87
2021/08/14 03:36:31;;;;;;;23.42;6.65;;;;;;;;;;1081862;47;20905;-87
2021/08/14 03:37:33;;;;;;;26.60;6.53;;;;;;;;;;1081754;54;20399;-86
2021/08/14 03:38:36;;;;;;;23.63;5.80;;;;;;;;;;1081354;54;20401;-86
2021/08/14 03:39:38;;;;;;;22.38;6.75;;;;;;;;;;1081646;47;20399;-87
2021/08/14 03:40:40;;;;;;;28.30;6.05;;;;;;;;;;1082899;39;20794;-87
2021/08/14 03:41:41;;;;;;;26.40;8.05;;;;;;;;;;1082023;54;20364;-86
2021/08/14 03:42:47;;;;;;;22.00;5.70;;;;;;;;;;1082403;54;20377;-87
2021/08/14 03:43:49;;;;;;;22.33;6.55;;;;;;;;;;1081947;54;20376;-86
2021/08/14 03:44:50;;;;;;;27.25;7.78;;;;;;;;;;1082304;47;20398;-86
2021/08/14 03:45:53;;;;;;;23.27;6.38;;;;;;;;;;1082049;54;20397;-86
2021/08/14 03:46:55;;;;;;;27.67;8.32;;;;;;;;;;1082157;54;20389;-87
2021/08/14 03:47:57;;;;;;;28.90;6.40;;;;;;;;;;1082389;54;20392;-86
2021/08/14 03:48:58;;;;;;;20.75;5.60;;;;;;;;;;1081935;47;20464;-87
2021/08/14 03:50:00;;;;;;;25.80;6.25;;;;;;;;;;1082750;39;20851;-87
2021/08/14 03:51:02;;;;;;;26.20;6.32;;;;;;;;;;1081596;54;20955;-86
2021/08/14 03:52:03;;;;;;;23.25;6.00;;;;;;;;;;1083032;54;20504;-87
2021/08/14 03:53:05;;;;;;;25.95;6.47;;;;;;;;;;1082351;47;20370;-86
2021/08/14 03:54:06;;;;;;;25.00;6.10;;;;;;;;;;1083433;46;20373;-86
2021/08/14 03:55:09;;;;;;;28.40;6.63;;;;;;;;;;1085330;47;20388;-86
2021/08/14 03:56:10;;;;;;;20.07;4.90;;;;;;;;;;1088227;39;20915;-88
2021/08/14 03:57:12;;;;;;;22.00;6.65;;;;;;;;;;1087553;54;20508;-88
2021/08/14 03:58:13;;;;;;;22.95;5.00;;;;;;;;;;1086932;54;20378;-88
2021/08/14 03:59:15;;;;;;;23.85;5.78;;;;;;;;;;1087156;54;20382;-87
2021/08/14 04:00:16;;;;;;;21.75;5.38;;;;;;;;;;1087183;47;20345;-88
2021/08/14 04:01:18;;;;;;;23.98;6.13;;;;;;;;;;1087561;54;20334;-87
2021/08/14 04:02:20;;;;;;;21.20;5.28;;;;;;;;;;1087647;54;20381;-87
2021/08/14 04:03:22;;;;;;;21.13;6.45;;;;;;;;;;1087629;47;20408;-87
2021/08/14 04:04:24;;;;;;;27.30;6.00;;;;;;;;;;1087779;46;20381;-86
2021/08/14 04:05:25;;;;;;;23.40;5.45;;;;;;;;;;1087408;54;20369;-86
2021/08/14 04:06:27;;;;;;;24.55;6.45;;;;;;;;;;1087081;54;20338;-86
2021/08/14 04:07:28;;;;;;;25.42;5.88;;;;;;;;;;1087542;54;20396;-85
2021/08/14 04:08:30;;;;;;;26.73;6.15;;;;;;;;;;1084678;54;20462;-86
2021/08/14 04:09:32;;;;;;;23.13;6.60;;;;;;;;;;1083540;47;20436;-87
2021/08/14 04:10:33;;;;;;;29.80;6.57;;;;;;;;;;1083434;39;20790;-85
2021/08/14 04:11:35;;;;;;;33.72;7.13;;;;;;;;;;1082446;47;20405;-86
2021/08/14 04:12:37;;;;;;;23.17;5.32;;;;;;;;;;1081735;47;20377;-86
2021/08/14 04:13:38;;;;;;;26.00;6.22;;;;;;;;;;1081939;47;20404;-86
2021/08/14 04:14:40;;;;;;;29.95;6.90;;;;;;;;;;1082300;39;20922;-87
2021/08/14 04:15:55;;;;;;;22.50;6.25;;;;;;;;;;1082179;54;20376;-86
2021/08/14 04:16:57;;;;;;;21.73;5.93;;;;;;;;;;1081928;47;20457;-88
2021/08/14 04:17:59;;;;;;;32.13;6.00;;;;;;;;;;1081312;54;20922;-87
2021/08/14 04:19:00;;;;;;;23.92;6.18;;;;;;;;;;1081412;47;20404;-86
2021/08/14 04:20:02;;;;;;;25.92;6.13;;;;;;;;;;1081783;54;20511;-86
2021/08/14 04:21:05;;;;;;;23.80;6.30;;;;;;;;;;1081883;54;20493;-86
2021/08/14 04:22:06;;;;;;;28.50;7.80;;;;;;;;;;1082012;54;20395;-86
2021/08/14 04:23:08;;;;;;;24.88;6.90;;;;;;;;;;1081334;47;21060;-86
2021/08/14 04:24:09;;;;;;;21.67;6.38;;;;;;;;;;1081593;54;20361;-85
2021/08/14 04:25:11;;;;;;;25.63;6.75;;;;;;;;;;1081534;54;20411;-87
2021/08/14 04:26:12;;;;;;;20.85;6.25;;;;;;;;;;1082005;54;20400;-86
2021/08/14 04:27:14;;;;;;;25.40;6.15;;;;;;;;;;1081540;54;20381;-87
2021/08/14 04:28:15;;;;;;;28.63;6.53;;;;;;;;;;1081026;54;20913;-87
2021/08/14 04:29:17;;;;;;;27.50;6.38;;;;;;;;;;1082023;47;20400;-87
2021/08/14 04:30:19;;;;;;;30.70;7.47;;;;;;;;;;1081837;54;20385;-86
2021/08/14 04:31:20;;;;;;;26.58;6.72;;;;;;;;;;1082159;39;21050;-86
2021/08/14 04:32:22;;;;;;;21.85;6.07;;;;;;;;;;1081750;47;20381;-85
2021/08/14 04:33:23;;;;;;;21.33;5.18;;;;;;;;;;1081420;47;20377;-86
2021/08/14 04:34:25;;;;;;;27.13;7.27;;;;;;;;;;1081351;47;20401;-87
2021/08/14 04:35:26;;;;;;;21.95;6.45;;;;;;;;;;1081571;54;20361;-87
2021/08/14 04:36:28;;;;;;;30.60;6.57;;;;;;;;;;1081456;47;20453;-87
2021/08/14 04:37:29;;;;;;;19.63;6.18;;;;;;;;;;1081712;54;20365;-87
2021/08/14 04:38:31;;;;;;;21.67;6.38;;;;;;;;;;1082032;47;20362;-87
2021/08/14 04:39:33;;;;;;;26.65;6.85;;;;;;;;;;1083964;39;20742;-87
2021/08/14 04:40:34;;;;;;;23.25;6.28;;;;;;;;;;1082356;47;20392;-87
2021/08/14 04:41:36;;;;;;;28.58;7.35;;;;;;;;;;1082284;48;20993;-87
2021/08/14 04:42:38;;;;;;;25.17;6.45;;;;;;;;;;1084986;54;20433;-87
2021/08/14 04:43:39;;;;;;;21.55;6.40;;;;;;;;;;1085960;54;20369;-88
2021/08/14 04:44:41;;;;;;;27.13;6.38;;;;;;;;;;1086097;54;20361;-88
2021/08/14 04:45:42;;;;;;;26.45;6.13;;;;;;;;;;1084953;47;20369;-87
2021/08/14 04:46:44;;;;;;;33.63;8.00;;;;;;;;;;1086874;47;20388;-88
2021/08/14 04:47:46;;;;;;;23.30;6.40;;;;;;;;;;1085868;47;20384;-87
2021/08/14 04:48:48;;;;;;;20.10;5.93;;;;;;;;;;1086119;47;20404;-88
2021/08/14 04:49:49;;;;;;;22.67;6.20;;;;;;;;;;1087401;54;20358;-88
2021/08/14 04:50:51;;;;;;;22.00;6.05;;;;;;;;;;1087121;47;20395;-88
2021/08/14 04:51:52;;;;;;;24.70;6.80;;;;;;;;;;1085279;54;20438;-86
2021/08/14 04:52:54;;;;;;;27.05;7.68;;;;;;;;;;1083798;54;20380;-87
2021/08/14 04:53:56;;;;;;;19.67;5.70;;;;;;;;;;1083680;54;20365;-86
2021/08/14 04:54:58;;;;;;;24.77;6.88;;;;;;;;;;1083148;46;20407;-86
2021/08/14 04:56:00;;;;;;;22.23;5.82;;;;;;;;;;1082869;54;20912;-86
2021/08/14 04:57:01;;;;;;;25.90;6.90;;;;;;;;;;1082725;39;20844;-87
2021/08/14 04:58:03;;;;;;;26.85;7.78;;;;;;;;;;1082332;47;20939;-86
2021/08/14 04:59:04;;;;;;;19.02;6.60;;;;;;;;;;1082282;54;21277;-87
2021/08/14 05:00:06;;;;;;;20.42;5.95;;;;;;;;;;1081944;54;20502;-87
2021/08/14 05:01:08;;;;;;;19.40;6.43;;;;;;;;;;1081728;54;20427;-86
2021/08/14 05:02:10;;;;;;;24.58;6.75;;;;;;;;;;1081882;54;20476;-86
2021/08/14 05:03:11;;;;;;;20.73;6.03;;;;;;;;;;1081770;54;20349;-87
2021/08/14 05:04:13;;;;;;;24.17;6.03;;;;;;;;;;1081853;47;20384;-86
2021/08/14 05:05:15;;;;;;;26.67;6.90;;;;;;;;;;1081836;54;20421;-87
2021/08/14 05:06:16;;;;;;;26.95;7.30;;;;;;;;;;1081562;54;20480;-86
2021/08/14 05:07:18;;;;;;;26.02;6.90;;;;;;;;;;1081455;54;20396;-86
2021/08/14 05:08:19;;;;;;;21.88;6.90;;;;;;;;;;1081581;54;20404;-86
2021/08/14 05:09:21;;;;;;;24.17;7.25;;;;;;;;;;1081669;54;20377;-85
2021/08/14 05:10:23;;;;;;;29.63;7.50;;;;;;;;;;1081568;47;20447;-86
2021/08/14 05:11:24;;;;;;;27.42;7.00;;;;;;;;;;1081665;54;20357;-87
2021/08/14 05:12:26;;;;;;;24.42;7.10;;;;;;;;;;1081557;54;20947;-87
2021/08/14 05:13:27;;;;;;;22.15;6.72;;;;;;;;;;1081633;47;20377;-86
2021/08/14 05:14:29;;;;;;;23.13;7.10;;;;;;;;;;1081737;54;20382;-86
2021/08/14 05:15:30;;;;;;;25.17;6.97;;;;;;;;;;1081422;54;20369;-85
2021/08/14 05:16:34;;;;;;;21.42;7.30;;;;;;;;;;1081713;47;20377;-86
2021/08/14 05:17:35;;;;;;;33.30;8.20;;;;;;;;;;1081903;54;20369;-85
2021/08/14 05:18:37;;;;;;;23.00;7.18;;;;;;;;;;1081581;47;20376;-87
2021/08/14 05:19:38;;;;;;;24.50;7.85;;;;;;;;;;1081227;54;20373;-87
2021/08/14 05:20:40;;;;;;;23.00;7.93;;;;;;;;;;1081302;54;20373;-86
2021/08/14 05:21:45;;;;;;;25.60;8.05;;;;;;;;;;1081619;47;21384;-88
2021/08/14 05:22:46;;;;;;;23.45;8.15;;;;;;;;;;1081480;47;20377;-87
2021/08/14 05:23:49;;;;;;;27.63;8.57;;;;;;;;;;1081742;47;20484;-87
2021/08/14 05:24:50;;;;;;;26.65;9.00;;;;;;;;;;1081906;54;20370;-87
2021/08/14 05:25:52;;;;;;;28.00;9.05;;;;;;;;;;1081865;54;20361;-86
2021/08/14 05:26:53;;;;;;;31.10;9.88;;;;;;;;;;1081495;54;20380;-87
2021/08/14 05:27:55;;;;;;;31.52;9.52;;;;;;;;;;1081495;47;20370;-87
2021/08/14 05:28:56;;;;;;;31.90;9.40;;;;;;;;;;1082101;46;20443;-87
2021/08/14 05:29:58;;;;;;;31.00;10.30;;;;;;;;;;1080971;47;20374;-86
2021/08/14 05:31:00;;;;;;;30.55;8.77;;;;;;;;;;1081335;54;20369;-87
2021/08/14 05:32:01;;;;;;;27.33;9.05;;;;;;;;;;1081742;47;20384;-87
2021/08/14 05:33:03;;;;;;;35.15;10.02;;;;;;;;;;1082120;39;20606;-86
2021/08/14 05:34:06;;;;;;;31.33;9.13;;;;;;;;;;1081771;47;20660;-85
2021/08/14 05:35:08;;;;;;;31.65;10.40;;;;;;;;;;1081359;47;20414;-86
2021/08/14 05:36:09;;;;;;;28.25;9.98;;;;;;;;;;1081867;54;20379;-86
2021/08/14 05:37:11;;;;;;;30.33;10.80;;;;;;;;;;1081900;47;20373;-87
2021/08/14 05:38:12;;;;;;;29.85;9.85;;;;;;;;;;1081828;48;20365;-86
2021/08/14 05:39:14;;;;;;;28.58;10.00;;;;;;;;;;1081811;39;21179;-86
2021/08/14 05:40:15;;;;;;;32.05;12.15;;;;;;;;;;1081636;47;20374;-86
2021/08/14 05:41:17;;;;;;;30.63;11.15;;;;;;;;;;1081451;54;20937;-86
2021/08/14 05:42:19;;;;;;;31.70;11.38;;;;;;;;;;1082114;47;20354;-87
2021/08/14 05:43:21;;;;;;;34.53;11.73;;;;;;;;;;1081839;54;20400;-87
2021/08/14 05:44:22;;;;;;;30.00;11.32;;;;;;;;;;1080997;54;20382;-86
2021/08/14 05:45:24;;;;;;;27.83;10.05;;;;;;;;;;1081842;54;20368;-86
2021/08/14 05:46:25;;;;;;;33.47;11.57;;;;;;;;;;1081930;54;20365;-87
2021/08/14 05:47:27;;;;;;;31.65;12.07;;;;;;;;;;1081937;54;20931;-87
2021/08/14 05:48:29;;;;;;;26.83;10.85;;;;;;;;;;1081652;54;20442;-86
2021/08/14 05:49:30;;;;;;;33.25;11.05;;;;;;;;;;1082081;54;21222;-86
2021/08/14 05:50:32;;;;;;;36.00;12.48;;;;;;;;;;1082243;54;20373;-87
2021/08/14 05:51:36;;;;;;;31.08;11.90;;;;;;;;;;1082139;47;20413;-86
2021/08/14 05:52:48;;;;;;;32.10;10.45;;;;;;;;;;1082214;46;20377;-88
2021/08/14 05:53:50;;;;;;;30.95;11.35;;;;;;;;;;1081875;54;20366;-86
2021/08/14 05:54:52;;;;;;;35.67;11.75;;;;;;;;;;1081765;54;20392;-87
2021/08/14 05:55:54;;;;;;;27.40;10.85;;;;;;;;;;1082364;54;20370;-86
2021/08/14 05:56:55;;;;;;;41.33;12.67;;;;;;;;;;1082166;47;20424;-87
2021/08/14 05:57:57;;;;;;;32.00;12.48;;;;;;;;;;1082228;54;20403;-87
2021/08/14 05:58:59;;;;;;;32.47;11.68;;;;;;;;;;1081668;47;20592;-86
2021/08/14 06:00:00;;;;;;;32.85;11.80;;;;;;;;;;1081820;54;20477;-86
2021/08/14 06:01:02;;;;;;;35.95;12.20;;;;;;;;;;1082245;54;20385;-86
2021/08/14 06:02:04;;;;;;;34.05;12.98;;;;;;;;;;1082304;47;20381;-86
2021/08/14 06:03:06;;;;;;;30.95;12.55;;;;;;;;;;1082569;54;20951;-87
2021/08/14 06:04:08;;;;;;;37.67;13.23;;;;;;;;;;1081777;54;20374;-85
2021/08/14 06:05:09;;;;;;;32.17;13.80;;;;;;;;;;1082113;54;20362;-86